Time;durP1;ratioP1;P1;durP2;ratioP2;P2;SDS_P1;SDS_P2;PMS_P1;PMS_P2;Temp;Humidity;BMP_temperature;BMP_pressure;BME280_temperature;BME280_humidity;BME280_pressure;Samples;Min_cycle;Max_cycle;Signal;HPM_P1;HPM_P2
2021/12/25 00:02:25;;;;;;;;;23.75;19.75;;;;;15.77;81.88;100035.59;5045131;28;62043;-77
2021/12/25 00:04:51;;;;;;;;;18.75;18.75;;;;;15.76;82.21;100029.41;5051784;28;61889;-78
2021/12/25 00:07:16;;;;;;;;;23.00;19.75;;;;;15.79;81.79;100025.91;5041697;28;61746;-81
2021/12/25 00:09:42;;;;;;;;;18.50;18.50;;;;;15.79;81.77;100024.16;5072493;28;61695;-78
2021/12/25 00:12:08;;;;;;;;;19.75;18.75;;;;;15.75;82.06;100022.38;5054184;28;61914;-76
2021/12/25 00:14:33;;;;;;;;;23.00;19.25;;;;;15.76;81.85;100020.59;5056386;28;62624;-76
2021/12/25 00:17:00;;;;;;;;;25.00;19.25;;;;;15.81;81.85;100016.22;5044543;28;61837;-76
2021/12/25 00:19:26;;;;;;;;;22.50;18.50;;;;;15.82;81.63;100008.31;5045521;28;61887;-76
2021/12/25 00:21:51;;;;;;;;;23.00;19.75;;;;;15.81;81.75;99997.69;5075025;28;63647;-76
2021/12/25 00:24:16;;;;;;;;;26.50;21.75;;;;;15.84;82.15;100003.03;5061313;27;61951;-76
2021/12/25 00:34:40;;;;;;;;;20.75;19.00;;;;;15.83;81.70;99980.09;5051275;28;62073;-76
2021/12/25 00:37:07;;;;;;;;;35.25;23.00;;;;;15.79;81.74;99984.47;5049355;28;61952;-76
2021/12/25 00:39:32;;;;;;;;;37.25;27.75;;;;;15.76;81.98;99981.78;5049914;28;62048;-76
2021/12/25 00:41:59;;;;;;;;;29.75;27.00;;;;;15.76;82.08;99983.56;5054203;28;62060;-76
2021/12/25 00:44:25;;;;;;;;;37.00;30.00;;;;;15.74;81.97;99976.50;5064733;28;61799;-76
2021/12/25 00:46:51;;;;;;;;;39.25;32.75;;;;;15.71;81.94;99981.75;5049617;28;61703;-76
2021/12/25 00:49:17;;;;;;;;;40.25;36.00;;;;;15.60;81.98;99975.41;5050670;28;62065;-75
2021/12/25 00:51:43;;;;;;;;;38.00;32.25;;;;;15.58;82.16;99985.09;5072708;28;63851;-76
2021/12/25 00:54:09;;;;;;;;;38.50;31.75;;;;;15.56;82.26;99986.84;5058767;28;62233;-76
2021/12/25 00:56:35;;;;;;;;;34.00;30.00;;;;;15.52;82.26;99987.66;5051286;28;61987;-76
2021/12/25 00:59:00;;;;;;;;;36.50;28.00;;;;;15.51;81.92;99984.16;5045072;28;62190;-76
2021/12/25 01:01:26;;;;;;;;;34.25;29.50;;;;;15.50;82.27;99987.66;5044605;28;61838;-76
2021/12/25 01:03:51;;;;;;;;;35.50;28.75;;;;;15.49;82.26;99990.28;5045830;28;61745;-76
2021/12/25 01:06:18;;;;;;;;;35.25;28.00;;;;;15.44;82.25;99990.22;5045140;28;62017;-76
2021/12/25 01:08:43;;;;;;;;;37.25;27.50;;;;;15.39;82.23;99993.69;5045248;28;62186;-76
2021/12/25 01:11:09;;;;;;;;;35.25;29.75;;;;;15.35;82.11;99990.13;5055077;28;61859;-76
2021/12/25 01:13:40;;;;;;;;;43.25;35.25;;;;;15.31;81.93;99981.25;5053827;28;62070;-76
2021/12/25 01:21:52;;;;;;;;;47.00;39.00;;;;;15.17;82.41;100001.34;5054312;28;62913;-76
2021/12/25 01:29:28;;;;;;;;;44.00;37.75;;;;;15.02;82.39;100019.66;5051923;28;61986;-76
2021/12/25 01:40:10;;;;;;;;;41.50;36.25;;;;;14.94;82.45;100006.31;5050301;28;61794;-76
2021/12/25 01:48:22;;;;;;;;;38.75;32.75;;;;;15.00;82.65;100008.19;5063187;28;61873;-76
2021/12/25 01:50:48;;;;;;;;;31.25;24.50;;;;;15.00;82.39;100010.81;5063930;28;61687;-76
2021/12/25 01:53:13;;;;;;;;;41.50;33.00;;;;;15.05;82.08;100012.63;5060457;28;62055;-76
2021/12/25 01:55:39;;;;;;;;;37.00;32.50;;;;;15.07;81.65;100008.25;5042710;28;61820;-76
2021/12/25 01:58:05;;;;;;;;;36.75;34.25;;;;;15.11;81.87;100004.78;5074961;28;61803;-76
2021/12/25 02:00:38;;;;;;;;;38.00;29.00;;;;;15.17;82.19;100018.94;5048587;28;61954;-76
2021/12/25 02:03:08;;;;;;;;;25.25;23.00;;;;;15.19;81.73;100019.84;5077864;28;63823;-76
2021/12/25 02:05:33;;;;;;;;;29.50;27.00;;;;;15.19;82.19;100006.66;5050805;28;61718;-76
2021/12/25 02:07:59;;;;;;;;;25.25;20.25;;;;;15.23;82.01;100019.94;5042912;28;61752;-76
2021/12/25 02:10:25;;;;;;;;;20.75;15.50;;;;;15.22;81.84;100015.50;5049760;28;61672;-76
2021/12/25 02:12:50;;;;;;;;;15.50;15.00;;;;;15.20;81.48;100014.59;5060915;28;62369;-76
2021/12/25 02:15:23;;;;;;;;;19.00;13.00;;;;;15.25;81.55;100015.56;5061006;28;61959;-76
2021/12/25 02:18:01;;;;;;;;;14.75;11.00;;;;;15.28;81.65;100017.34;5059538;28;62047;-76
2021/12/25 02:20:37;;;;;;;;;9.00;9.00;;;;;15.28;81.51;100020.00;5044139;28;61918;-76
2021/12/25 02:23:31;;;;;;;;;12.50;10.25;;;;;15.33;81.62;100021.81;5062390;28;62006;-76
2021/12/25 02:25:57;;;;;;;;;7.50;6.50;;;;;15.38;81.53;100021.00;5057543;28;62251;-76
2021/12/25 02:28:25;;;;;;;;;9.50;7.75;;;;;15.41;81.28;100015.75;5041368;28;61889;-76
2021/12/25 02:30:53;;;;;;;;;14.50;10.75;;;;;15.44;81.25;100018.44;5046301;28;61766;-76
2021/12/25 02:33:18;;;;;;;;;13.50;11.00;;;;;15.46;81.18;100014.03;5073759;28;64986;-76
2021/12/25 02:35:45;;;;;;;;;16.50;10.75;;;;;15.50;81.09;100018.50;5060712;28;61940;-76
2021/12/25 02:38:11;;;;;;;;;11.00;9.75;;;;;15.52;81.23;100016.75;5041113;28;61997;-76
2021/12/25 02:40:36;;;;;;;;;14.50;8.75;;;;;15.59;81.05;100012.44;5047084;28;61967;-76
2021/12/25 02:43:03;;;;;;;;;9.25;9.25;;;;;15.57;80.92;100007.13;5048882;28;61968;-76
2021/12/25 02:45:28;;;;;;;;;12.00;10.25;;;;;15.58;80.59;100008.91;5062190;28;61801;-76
2021/12/25 02:47:56;;;;;;;;;13.25;10.50;;;;;15.54;80.95;100007.09;5062474;28;61876;-76
2021/12/25 02:50:25;;;;;;;;;10.75;9.75;;;;;15.62;80.74;100007.19;5062834;28;61937;-76
2021/12/25 02:52:52;;;;;;;;;16.50;13.00;;;;;15.64;81.33;100008.97;5060008;28;62872;-76
2021/12/25 02:55:17;;;;;;;;;14.50;10.25;;;;;15.66;81.10;100003.69;5061824;28;62126;-76
2021/12/25 02:57:49;;;;;;;;;10.00;10.00;;;;;15.67;80.46;100013.41;5073410;28;61999;-76
2021/12/25 03:00:15;;;;;;;;;12.50;11.00;;;;;15.70;80.32;100008.13;5043205;28;61937;-76
2021/12/25 03:02:40;;;;;;;;;11.75;9.50;;;;;15.72;80.83;100004.69;5075608;28;63686;-76
2021/12/25 03:05:06;;;;;;;;;16.00;11.00;;;;;15.72;80.88;100003.78;5062343;28;61748;-76
2021/12/25 03:07:31;;;;;;;;;13.75;12.25;;;;;15.76;81.21;100016.19;5059471;28;62102;-76
2021/12/25 03:09:57;;;;;;;;;10.25;10.00;;;;;15.77;80.82;100007.38;5057574;28;61928;-76
2021/12/25 03:12:32;;;;;;;;;11.75;8.75;;;;;15.78;81.07;100005.63;5042422;28;62345;-76
2021/12/25 03:15:13;;;;;;;;;11.75;10.75;;;;;15.74;80.26;100002.97;5042175;28;62035;-76
2021/12/25 03:17:39;;;;;;;;;16.00;12.00;;;;;15.78;80.66;100000.34;5059110;28;61683;-76
2021/12/25 03:20:09;;;;;;;;;14.75;12.25;;;;;15.82;80.86;100000.38;5062391;28;61728;-76
2021/12/25 03:22:37;;;;;;;;;17.75;11.75;;;;;15.81;80.65;99993.31;5043312;28;61998;-76
2021/12/25 03:25:05;;;;;;;;;19.25;18.25;;;;;15.85;80.68;99999.50;5042927;28;61901;-76
2021/12/25 03:27:31;;;;;;;;;19.25;15.25;;;;;15.85;80.51;99999.50;5040158;28;61868;-76
2021/12/25 03:29:56;;;;;;;;;17.75;15.00;;;;;15.84;81.03;100000.41;5043206;28;61865;-76
2021/12/25 03:32:22;;;;;;;;;21.25;15.50;;;;;15.85;81.03;99997.78;5041274;28;62698;-76
2021/12/25 03:34:47;;;;;;;;;14.25;12.00;;;;;15.86;80.85;99999.53;5042265;28;62133;-75
2021/12/25 03:37:13;;;;;;;;;16.25;11.00;;;;;15.87;80.75;99995.13;5062264;28;61939;-76
2021/12/25 03:39:38;;;;;;;;;12.75;9.00;;;;;15.88;80.96;100002.22;5059828;28;61827;-76
2021/12/25 03:42:04;;;;;;;;;13.25;11.25;;;;;15.87;80.73;100001.28;5041504;28;62514;-76
2021/12/25 03:44:31;;;;;;;;;13.75;12.25;;;;;15.90;81.21;100005.75;5044645;28;61751;-76
2021/12/25 03:47:03;;;;;;;;;16.50;11.75;;;;;15.90;80.89;100000.47;5044245;28;61894;-76
2021/12/25 03:53:05;;;;;;;;;13.50;13.00;;;;;15.89;80.76;100001.31;5061810;28;61820;-76
2021/12/25 03:57:51;;;;;;;;;23.75;16.00;;;;;15.91;81.41;100018.97;5032476;28;61903;-76
2021/12/25 04:00:26;;;;;;;;;17.00;13.75;;;;;15.93;80.73;100025.19;5039397;28;61872;-76
2021/12/25 04:02:56;;;;;;;;;15.50;13.00;;;;;15.93;80.91;100027.81;5021437;28;63732;-76
2021/12/25 04:05:27;;;;;;;;;17.00;12.00;;;;;15.94;80.68;100026.09;5021254;28;61938;-76
2021/12/25 04:08:07;;;;;;;;;15.75;14.50;;;;;15.95;80.80;100026.09;5039083;28;61863;-76
2021/12/25 04:10:37;;;;;;;;;16.75;12.50;;;;;15.96;80.98;100027.00;5037816;28;61859;-76
2021/12/25 04:13:05;;;;;;;;;11.50;11.50;;;;;15.98;80.84;100027.00;5038287;28;62085;-76
2021/12/25 04:15:31;;;;;;;;;16.75;13.50;;;;;15.94;80.93;100011.09;5038437;28;62176;-76
2021/12/25 04:17:56;;;;;;;;;12.00;12.00;;;;;15.97;80.99;100023.47;5038375;28;61911;-76
2021/12/25 04:20:22;;;;;;;;;13.25;11.00;;;;;15.95;80.77;100020.78;5038558;28;62157;-76
2021/12/25 04:23:01;;;;;;;;;13.50;10.75;;;;;15.95;81.21;100018.16;5021131;28;63752;-76
2021/12/25 04:25:30;;;;;;;;;12.50;11.00;;;;;15.97;81.00;100019.94;5021032;28;62028;-76
2021/12/25 04:28:01;;;;;;;;;15.25;12.00;;;;;15.96;81.23;100019.06;5038391;28;61834;-76
2021/12/25 05:02:51;;;;;;;;;18.00;14.25;;;;;15.98;81.01;100024.34;5045816;28;61925;-76
2021/12/25 05:05:19;;;;;;;;;25.25;18.00;;;;;15.99;80.94;100028.78;5043597;28;62645;-76
2021/12/25 05:07:45;;;;;;;;;20.75;15.50;;;;;15.97;81.18;100034.06;5046921;28;61727;-76
2021/12/25 05:10:10;;;;;;;;;21.00;19.00;;;;;15.99;81.13;100027.03;5054637;28;61829;-76
2021/12/25 05:12:36;;;;;;;;;22.75;19.00;;;;;15.98;81.08;100019.97;5056218;28;61905;-76
2021/12/25 05:15:02;;;;;;;;;23.25;18.50;;;;;16.00;81.24;100031.44;5063513;28;61856;-76
2021/12/25 05:17:27;;;;;;;;;31.00;18.25;;;;;15.99;81.24;100027.03;5062525;28;61915;-76
2021/12/25 05:19:53;;;;;;;;;28.25;17.50;;;;;15.98;81.25;100027.91;5063975;28;62668;-76
2021/12/25 05:22:18;;;;;;;;;20.25;16.25;;;;;15.99;81.26;100028.78;5047891;28;62078;-76
2021/12/25 05:24:44;;;;;;;;;20.75;17.50;;;;;16.00;81.39;100027.91;5042740;28;61940;-76
2021/12/25 05:27:12;;;;;;;;;20.00;17.00;;;;;16.02;81.22;100032.31;5043332;28;61800;-76
2021/12/25 05:29:40;;;;;;;;;18.50;17.25;;;;;16.02;80.77;100032.31;5064473;28;61959;-76
2021/12/25 05:32:06;;;;;;;;;26.00;19.25;;;;;16.05;80.95;100029.72;5062208;28;61714;-76
2021/12/25 05:34:32;;;;;;;;;19.50;15.75;;;;;16.05;80.83;100029.72;5062996;28;61973;-76
2021/12/25 05:36:57;;;;;;;;;22.25;17.00;;;;;16.03;80.92;100028.81;5056320;28;61765;-76
2021/12/25 05:39:22;;;;;;;;;21.75;20.25;;;;;16.03;80.98;100026.19;5078866;28;61964;-76
2021/12/25 05:41:48;;;;;;;;;23.50;18.50;;;;;16.04;81.18;100032.34;5060072;28;61801;-76
2021/12/25 05:44:13;;;;;;;;;21.00;17.25;;;;;16.05;81.25;100031.50;5044066;28;62355;-76
2021/12/25 05:46:39;;;;;;;;;21.25;17.25;;;;;16.05;81.16;100028.84;5063584;28;61912;-76
2021/12/25 05:49:04;;;;;;;;;19.75;14.75;;;;;16.05;80.94;100032.38;5057323;28;61842;-76
2021/12/25 05:51:30;;;;;;;;;18.00;17.00;;;;;16.03;81.02;100028.81;5042182;28;61912;-76
2021/12/25 05:53:55;;;;;;;;;17.50;15.00;;;;;16.06;80.97;100031.50;5042684;28;62605;-76
2021/12/25 05:56:23;;;;;;;;;20.25;18.00;;;;;16.03;80.95;100028.81;5043950;28;61868;-76
2021/12/25 05:58:49;;;;;;;;;21.75;18.25;;;;;16.03;81.25;100034.13;5041867;28;61669;-76
2021/12/25 06:01:14;;;;;;;;;16.75;16.75;;;;;16.05;81.08;100045.63;5047147;28;61997;-76
2021/12/25 06:03:39;;;;;;;;;21.75;16.00;;;;;16.03;81.26;100039.41;5057673;28;64763;-76
2021/12/25 06:06:06;;;;;;;;;23.50;17.75;;;;;16.05;81.44;100039.44;5062996;28;61943;-76
2021/12/25 06:08:32;;;;;;;;;17.75;16.50;;;;;16.07;81.44;100037.69;5078484;28;61870;-76
2021/12/25 06:10:58;;;;;;;;;23.00;15.00;;;;;16.08;81.83;100032.41;5043553;28;61900;-75
2021/12/25 06:13:24;;;;;;;;;19.00;12.25;;;;;16.05;81.59;100028.84;5042690;28;62503;-76
2021/12/25 06:15:51;;;;;;;;;16.75;16.00;;;;;16.07;81.64;100035.94;5043302;28;62028;-76
2021/12/25 06:18:17;;;;;;;;;21.50;16.75;;;;;16.07;81.87;100041.22;5043234;28;62170;-76
2021/12/25 06:20:43;;;;;;;;;27.50;20.00;;;;;16.07;81.80;100041.22;5055995;28;61868;-76
2021/12/25 06:23:08;;;;;;;;;21.75;18.25;;;;;16.07;82.16;100037.69;5061297;28;62535;-76
2021/12/25 06:25:35;;;;;;;;;25.75;17.75;;;;;16.08;82.07;100042.97;5061275;28;62023;-76
2021/12/25 06:28:00;;;;;;;;;14.50;14.25;;;;;16.08;81.75;100042.97;5052370;28;61905;-76
2021/12/25 06:30:26;;;;;;;;;18.50;14.25;;;;;16.07;82.05;100038.56;5043078;28;61794;-76
2021/12/25 06:32:51;;;;;;;;;19.75;16.25;;;;;16.08;81.99;100050.94;5048270;28;61916;-76
2021/12/25 06:35:17;;;;;;;;;19.75;16.50;;;;;16.07;82.11;100046.53;5060981;28;62004;-76
2021/12/25 06:37:46;;;;;;;;;17.50;14.50;;;;;16.08;81.94;100058.88;5052015;28;61872;-76
2021/12/25 06:40:18;;;;;;;;;18.00;12.00;;;;;16.09;81.98;100058.00;5055760;28;61843;-76
2021/12/25 06:42:44;;;;;;;;;17.00;14.25;;;;;16.02;81.77;100058.81;5061608;28;62714;-76
2021/12/25 06:45:10;;;;;;;;;19.75;12.50;;;;;16.02;81.21;100049.97;5056390;28;62251;-76
2021/12/25 06:47:36;;;;;;;;;20.50;16.75;;;;;16.01;81.97;100049.09;5061721;28;62050;-76
2021/12/25 06:50:02;;;;;;;;;12.50;12.50;;;;;16.04;81.83;100048.25;5048073;28;62038;-76
2021/12/25 06:52:28;;;;;;;;;17.25;12.50;;;;;16.04;81.97;100059.72;5042842;28;62848;-76
2021/12/25 06:54:53;;;;;;;;;13.75;11.25;;;;;16.01;81.60;100051.75;5042635;28;61895;-76
2021/12/25 06:57:19;;;;;;;;;18.25;13.00;;;;;16.03;81.90;100051.78;5054205;28;62012;-76
2021/12/25 06:59:44;;;;;;;;;16.75;15.00;;;;;16.06;81.76;100057.09;5061560;28;61965;-76
2021/12/25 07:02:10;;;;;;;;;14.75;13.50;;;;;16.06;81.60;100052.66;5067384;28;63833;-75
2021/12/25 07:04:35;;;;;;;;;18.25;12.50;;;;;16.02;81.71;100045.56;5042426;28;61731;-76
2021/12/25 07:07:01;;;;;;;;;18.50;13.25;;;;;16.05;82.28;100053.56;5045975;28;61813;-76
2021/12/25 07:09:26;;;;;;;;;16.50;14.25;;;;;16.06;81.74;100057.97;5059665;28;62099;-76
2021/12/25 07:11:52;;;;;;;;;15.00;15.00;;;;;16.07;81.59;100056.22;5060426;28;62796;-76
2021/12/25 07:14:17;;;;;;;;;18.00;12.50;;;;;16.06;82.08;100057.09;5057490;28;61882;-76
2021/12/25 07:16:43;;;;;;;;;14.75;13.25;;;;;16.07;81.76;100062.41;5057535;28;62482;-76
2021/12/25 07:19:12;;;;;;;;;18.50;17.25;;;;;16.07;81.50;100056.22;5062606;28;61868;-76
2021/12/25 07:21:38;;;;;;;;;18.50;15.25;;;;;16.08;81.45;100058.88;5056995;28;62622;-76
2021/12/25 07:24:04;;;;;;;;;22.50;20.00;;;;;16.10;81.71;100056.25;5067181;28;62199;-76
2021/12/25 07:26:30;;;;;;;;;24.25;18.25;;;;;16.07;81.54;100058.88;5042689;28;61772;-76
2021/12/25 07:28:56;;;;;;;;;18.75;15.25;;;;;16.09;81.80;100062.44;5059212;28;62045;-76
2021/12/25 07:31:21;;;;;;;;;17.00;15.75;;;;;16.07;81.14;100053.59;5049227;28;62060;-76
2021/12/25 07:33:47;;;;;;;;;19.50;16.75;;;;;16.07;81.54;100057.09;5060304;28;62111;-76
2021/12/25 07:36:13;;;;;;;;;20.00;17.50;;;;;16.06;81.38;100057.97;5062403;28;61860;-76
2021/12/25 07:38:39;;;;;;;;;18.75;17.25;;;;;16.04;81.40;100053.53;5052470;28;61733;-76
2021/12/25 07:41:05;;;;;;;;;23.25;14.50;;;;;16.03;81.75;100055.31;5047908;28;61982;-76
2021/12/25 07:43:31;;;;;;;;;25.75;17.75;;;;;16.04;81.77;100057.06;5069265;28;62050;-76
2021/12/25 07:45:57;;;;;;;;;15.00;12.50;;;;;16.05;81.90;100064.16;5076764;27;61865;-76
2021/12/25 07:48:25;;;;;;;;;20.75;15.75;;;;;16.02;81.79;100055.28;5075700;28;62164;-76
2021/12/25 07:50:51;;;;;;;;;23.25;17.75;;;;;16.03;81.65;100059.72;5047632;28;63674;-76
2021/12/25 07:53:17;;;;;;;;;21.75;18.50;;;;;16.03;82.46;100063.25;5049363;28;61983;-76
2021/12/25 07:55:44;;;;;;;;;21.25;16.25;;;;;16.04;81.97;100062.34;5057900;28;61841;-76
2021/12/25 07:58:10;;;;;;;;;18.75;17.75;;;;;16.04;82.35;100062.34;5048276;28;61948;-76
2021/12/25 08:00:35;;;;;;;;;19.75;16.00;;;;;16.06;82.32;100057.97;5041756;28;63402;-76
2021/12/25 08:03:01;;;;;;;;;23.00;19.25;;;;;16.03;82.07;100057.94;5073801;28;61929;-76
2021/12/25 08:05:27;;;;;;;;;33.75;19.75;;;;;16.07;82.18;100073.00;5048880;28;61981;-76
2021/12/25 08:07:52;;;;;;;;;25.00;19.25;;;;;16.09;82.19;100065.06;5053235;28;62034;-76
2021/12/25 08:10:19;;;;;;;;;27.25;23.50;;;;;16.10;82.26;100073.00;5046963;28;62909;-76
2021/12/25 08:12:52;;;;;;;;;24.00;19.00;;;;;16.14;82.02;100073.94;5050969;28;61808;-76
2021/12/25 08:15:20;;;;;;;;;23.25;19.00;;;;;16.13;81.94;100078.34;5057560;28;62094;-76
2021/12/25 08:17:46;;;;;;;;;25.50;17.25;;;;;16.08;81.93;100077.41;5078896;27;61873;-76
2021/12/25 08:20:12;;;;;;;;;25.75;22.50;;;;;16.11;81.73;100081.84;5060701;28;62230;-76
2021/12/25 08:22:38;;;;;;;;;23.00;18.75;;;;;16.11;82.04;100076.53;5057196;28;61936;-76
2021/12/25 08:25:05;;;;;;;;;22.25;17.75;;;;;16.15;81.77;100076.63;5063473;28;61861;-76
2021/12/25 08:27:31;;;;;;;;;20.50;19.50;;;;;16.16;81.77;100080.16;5051251;28;61842;-76
2021/12/25 08:29:57;;;;;;;;;24.75;18.50;;;;;16.13;81.16;100075.72;5057147;28;61926;-76
2021/12/25 08:32:23;;;;;;;;;27.50;25.00;;;;;16.12;80.45;100080.97;5056569;28;62012;-76
2021/12/25 08:34:49;;;;;;;;;22.75;22.75;;;;;16.06;80.93;100078.25;5053403;28;61805;-77
2021/12/25 08:37:15;;;;;;;;;24.50;19.00;;;;;16.10;81.06;100077.44;5053575;28;61889;-78
2021/12/25 08:39:40;;;;;;;;;21.00;17.75;;;;;16.08;80.53;100076.53;5043543;28;62828;-78
2021/12/25 08:42:07;;;;;;;;;27.50;22.25;;;;;16.11;80.82;100079.19;5061527;28;61889;-77
2021/12/25 08:45:04;;;;;;;;;26.50;21.75;;;;;16.15;80.98;100087.22;5060320;28;61829;-78
2021/12/25 08:47:25;;;;;;;;;30.25;25.75;;;;;16.19;80.71;100085.47;5045515;28;61717;-79
2021/12/25 08:49:52;;;;;;;;;27.25;25.25;;;;;16.19;80.88;100081.94;5043737;28;61777;-77
2021/12/25 08:52:20;;;;;;;;;44.25;34.75;;;;;16.20;80.79;100089.91;5076547;28;61893;-78
2021/12/25 08:54:48;;;;;;;;;23.50;22.50;;;;;16.19;80.32;100087.22;5046365;28;62225;-78
2021/12/25 08:57:15;;;;;;;;;24.50;21.75;;;;;16.13;80.52;100085.38;5071041;28;62002;-78
2021/12/25 08:59:41;;;;;;;;;31.75;29.25;;;;;16.14;80.48;100095.13;5051459;28;61884;-78
2021/12/25 09:02:11;;;;;;;;;21.50;14.50;;;;;16.14;80.25;100096.00;5072401;28;61918;-78
2021/12/25 09:04:38;;;;;;;;;26.50;22.50;;;;;16.19;80.07;100092.53;5077818;28;61918;-77
2021/12/25 09:07:04;;;;;;;;;18.75;15.50;;;;;16.21;79.79;100096.06;5064492;28;62155;-78
2021/12/25 09:09:30;;;;;;;;;25.50;12.50;;;;;16.21;80.04;100101.38;5062013;28;62835;-78
2021/12/25 09:11:55;;;;;;;;;27.00;23.25;;;;;16.25;80.10;100103.19;5064068;28;61883;-78
2021/12/25 09:14:21;;;;;;;;;28.00;22.25;;;;;16.25;79.69;100096.13;5061841;28;62052;-78
2021/12/25 09:16:47;;;;;;;;;19.00;15.00;;;;;16.27;79.95;100098.78;5046860;28;61733;-76
2021/12/25 09:19:13;;;;;;;;;20.50;18.75;;;;;16.34;79.85;100108.56;5062582;28;63049;-76
2021/12/25 09:21:38;;;;;;;;;22.50;18.50;;;;;16.31;79.11;100100.59;5055108;28;62071;-76
2021/12/25 09:24:04;;;;;;;;;25.50;15.75;;;;;16.35;79.37;100100.63;5048237;28;61877;-77
2021/12/25 09:26:29;;;;;;;;;22.75;15.00;;;;;16.39;79.54;100108.59;5079030;28;62158;-78
2021/12/25 09:28:54;;;;;;;;;30.00;24.25;;;;;16.41;79.68;100105.13;5060800;28;63116;-76
2021/12/25 09:31:21;;;;;;;;;20.50;14.50;;;;;16.47;79.53;100113.09;5073278;27;62018;-74
2021/12/25 09:33:46;;;;;;;;;25.50;22.75;;;;;16.48;79.26;100101.66;5048317;28;61814;-78
2021/12/25 09:36:12;;;;;;;;;20.50;14.25;;;;;16.53;79.31;100107.84;5064209;28;61869;-78
2021/12/25 09:38:37;;;;;;;;;26.00;21.25;;;;;16.59;79.08;100101.75;5051288;28;61943;-75
2021/12/25 09:41:04;;;;;;;;;28.50;23.75;;;;;16.65;78.98;100107.09;5061622;28;62541;-74
2021/12/25 09:43:31;;;;;;;;;26.25;21.25;;;;;16.72;78.73;100108.91;5054850;28;62120;-76
2021/12/25 09:45:57;;;;;;;;;28.75;23.75;;;;;16.75;78.36;100110.69;5062804;28;61996;-75
2021/12/25 09:48:23;;;;;;;;;20.00;19.00;;;;;16.73;77.50;100123.03;5056719;28;63208;-77
2021/12/25 09:50:49;;;;;;;;;31.75;22.00;;;;;16.74;77.24;100123.06;5043722;28;62028;-76
2021/12/25 09:53:18;;;;;;;;;25.50;18.75;;;;;16.77;78.04;100123.09;5054209;28;61755;-76
2021/12/25 09:55:47;;;;;;;;;16.25;13.50;;;;;16.92;78.16;100121.47;5067150;28;62088;-77
2021/12/25 09:58:12;;;;;;;;;24.25;16.25;;;;;17.03;77.62;100122.47;5051568;28;61902;-75
2021/12/25 10:00:44;;;;;;;;;29.75;22.00;;;;;17.11;77.18;100111.88;5060166;28;61767;-78
2021/12/25 10:03:09;;;;;;;;;20.75;17.25;;;;;17.16;76.24;100120.78;5049844;28;61841;-76
2021/12/25 10:05:41;;;;;;;;;24.25;19.75;;;;;17.18;77.02;100116.34;5051263;28;61919;-76
2021/12/25 10:08:08;;;;;;;;;21.50;15.75;;;;;17.24;76.86;100121.69;5048164;28;61909;-76
2021/12/25 10:10:40;;;;;;;;;23.50;19.00;;;;;17.19;76.82;100120.78;5054373;28;62917;-76
2021/12/25 10:13:37;;;;;;;;;24.25;22.75;;;;;17.16;76.59;100123.44;5049597;28;62246;-76
2021/12/25 10:16:24;;;;;;;;;16.50;12.50;;;;;17.08;76.42;100125.16;5058413;28;62041;-76
2021/12/25 10:18:51;;;;;;;;;19.50;15.75;;;;;17.03;76.73;100125.13;5076706;27;63532;-75
2021/12/25 10:21:29;;;;;;;;;21.50;16.25;;;;;17.01;76.94;100115.34;5049671;28;61663;-76
2021/12/25 10:24:12;;;;;;;;;19.75;13.25;;;;;17.05;76.75;100111.84;5057565;28;62043;-76
2021/12/25 10:26:40;;;;;;;;;20.50;17.50;;;;;17.09;76.70;100111.00;5045075;28;62123;-75
2021/12/25 10:29:20;;;;;;;;;22.25;16.25;;;;;17.13;76.83;100111.03;5042979;28;62236;-76
2021/12/25 10:31:46;;;;;;;;;21.50;17.00;;;;;17.19;76.49;100109.31;5072602;28;61986;-76
2021/12/25 10:34:16;;;;;;;;;20.50;15.25;;;;;17.27;77.00;100107.59;5050027;28;61995;-75
2021/12/25 10:36:42;;;;;;;;;19.25;16.00;;;;;17.36;76.49;100100.56;5057789;28;62108;-75
2021/12/25 10:39:19;;;;;;;;;16.75;11.00;;;;;17.49;75.66;100109.47;5048597;28;62130;-75
2021/12/25 10:41:55;;;;;;;;;16.75;12.50;;;;;17.61;75.00;100113.97;5052299;28;61919;-75
2021/12/25 10:44:27;;;;;;;;;20.50;14.25;;;;;17.59;74.05;100110.41;5054439;28;61900;-75
2021/12/25 10:47:03;;;;;;;;;15.00;13.50;;;;;17.65;75.15;100098.94;5062183;28;61986;-75
2021/12/25 10:49:53;;;;;;;;;25.75;16.25;;;;;17.70;75.04;100102.50;5061305;28;61816;-76
2021/12/25 10:52:39;;;;;;;;;17.00;13.50;;;;;17.83;74.60;100100.81;5063011;28;62262;-75
2021/12/25 10:55:15;;;;;;;;;23.00;16.00;;;;;17.79;74.12;100087.50;5055971;28;61908;-75
2021/12/25 10:57:47;;;;;;;;;18.75;15.00;;;;;17.75;75.01;100096.31;5060128;28;61792;-75
2021/12/25 11:00:33;;;;;;;;;8.50;8.25;;;;;17.66;75.27;100088.31;5050240;28;62187;-75
2021/12/25 11:03:07;;;;;;;;;19.75;14.25;;;;;17.68;74.19;100088.34;5061148;28;62045;-76
2021/12/25 11:05:39;;;;;;;;;13.50;12.50;;;;;17.69;74.67;100082.13;5060535;28;61923;-76
2021/12/25 11:08:12;;;;;;;;;17.75;15.00;;;;;17.76;74.26;100084.84;5061693;28;61992;-76
2021/12/25 11:10:56;;;;;;;;;13.50;11.00;;;;;17.79;73.06;100071.56;5059911;28;64676;-76
2021/12/25 11:13:21;;;;;;;;;13.00;10.75;;;;;17.79;74.36;100076.00;5075168;28;61990;-76
2021/12/25 11:15:49;;;;;;;;;15.00;11.75;;;;;17.87;73.92;100068.09;5058580;28;62307;-76
2021/12/25 11:18:15;;;;;;;;;20.25;13.00;;;;;17.81;73.16;100066.25;5060428;28;61886;-76
2021/12/25 11:20:43;;;;;;;;;17.00;12.00;;;;;17.82;74.25;100068.06;5056231;28;62011;-76
2021/12/25 11:23:11;;;;;;;;;15.00;12.50;;;;;17.88;74.08;100068.06;5054996;28;62219;-76
2021/12/25 11:25:38;;;;;;;;;14.00;13.50;;;;;17.91;73.70;100068.09;5054763;28;62224;-77
2021/12/25 11:28:07;;;;;;;;;13.75;13.00;;;;;17.94;73.71;100069.88;5051414;28;62032;-76
2021/12/25 11:30:35;;;;;;;;;17.75;13.25;;;;;17.95;73.00;100063.66;5052657;28;62209;-76
2021/12/25 11:33:01;;;;;;;;;25.00;18.50;;;;;17.92;73.69;100064.56;5069739;27;61950;-76
2021/12/25 11:35:27;;;;;;;;;20.75;11.00;;;;;18.01;73.67;100058.38;5052678;28;61867;-76
2021/12/25 11:37:55;;;;;;;;;16.25;12.50;;;;;18.03;72.19;100053.97;5042139;28;61847;-76
2021/12/25 11:40:27;;;;;;;;;23.25;19.00;;;;;17.95;72.83;100055.69;5054392;28;61893;-77
2021/12/25 11:42:56;;;;;;;;;16.50;13.75;;;;;17.97;72.86;100056.59;5060421;28;62051;-76
2021/12/25 11:45:33;;;;;;;;;16.25;15.00;;;;;18.14;73.00;100052.19;5056783;28;61907;-77
2021/12/25 11:48:10;;;;;;;;;17.50;13.75;;;;;18.10;72.23;100050.44;5072313;28;62144;-76
2021/12/25 11:50:41;;;;;;;;;19.00;15.50;;;;;18.03;72.15;100047.75;5049358;28;63863;-76
2021/12/25 11:53:23;;;;;;;;;23.75;16.00;;;;;18.00;72.27;100042.47;5057825;28;62273;-76
2021/12/25 11:58:54;;;;;;;;;14.75;13.00;;;;;17.89;72.63;100045.09;5050251;28;61746;-76
2021/12/25 12:01:23;;;;;;;;;18.50;14.50;;;;;17.92;72.37;100047.75;5052189;28;62739;-76
2021/12/25 12:04:04;;;;;;;;;18.00;13.00;;;;;17.99;72.21;100041.56;5066327;28;62150;-78
2021/12/25 12:06:47;;;;;;;;;17.75;14.75;;;;;18.10;72.59;100039.81;5054758;27;62416;-75
2021/12/25 12:09:21;;;;;;;;;26.75;16.75;;;;;18.21;72.21;100045.16;5051100;28;62329;-78
2021/12/25 12:11:50;;;;;;;;;18.25;13.00;;;;;18.11;71.53;100038.94;5050507;28;64410;-76
2021/12/25 12:14:26;;;;;;;;;18.25;14.75;;;;;18.16;71.93;100036.28;5050955;28;61954;-78
2021/12/25 12:17:01;;;;;;;;;19.00;15.75;;;;;18.21;71.22;100031.88;5047904;28;62742;-76
2021/12/25 12:19:30;;;;;;;;;21.75;15.75;;;;;18.21;72.06;100039.84;5046793;28;61981;-77
2021/12/25 12:21:59;;;;;;;;;25.25;15.75;;;;;18.23;72.06;100037.16;5046178;28;64110;-76
2021/12/25 12:27:03;;;;;;;;;13.50;10.50;;;;;18.04;71.75;100039.81;5053112;28;63134;-76
2021/12/25 12:30:08;;;;;;;;;20.25;14.50;;;;;17.93;72.19;100033.56;5044943;28;61925;-76
2021/12/25 12:32:44;;;;;;;;;17.00;12.50;;;;;17.91;71.45;100044.22;5021895;28;64889;-78